sensor_id;sensor_type;location;lat;lon;timestamp;temperature;humidity
12720;DHT22;6424;48.520;11.228;2023-06-10T00:02:28;16.10;99.90
12720;DHT22;6424;48.520;11.228;2023-06-10T00:05:09;16.10;99.90
12720;DHT22;6424;48.520;11.228;2023-06-10T00:07:50;16.10;99.90
12720;DHT22;6424;48.520;11.228;2023-06-10T00:10:31;16.10;99.90
12720;DHT22;6424;48.520;11.228;2023-06-10T00:13:12;16.00;99.90
12720;DHT22;6424;48.520;11.228;2023-06-10T00:15:53;16.00;99.90
12720;DHT22;6424;48.520;11.228;2023-06-10T00:18:33;15.90;99.90
12720;DHT22;6424;48.520;11.228;2023-06-10T00:21:17;15.90;99.90
12720;DHT22;6424;48.520;11.228;2023-06-10T00:23:59;15.80;99.90
12720;DHT22;6424;48.520;11.228;2023-06-10T00:26:43;15.80;99.90
12720;DHT22;6424;48.520;11.228;2023-06-10T00:29:24;15.70;99.90
12720;DHT22;6424;48.520;11.228;2023-06-10T00:32:05;15.70;99.90
12720;DHT22;6424;48.520;11.228;2023-06-10T00:34:46;15.70;99.90
12720;DHT22;6424;48.520;11.228;2023-06-10T00:37:27;15.70;99.90
12720;DHT22;6424;48.520;11.228;2023-06-10T00:40:09;15.60;99.90
12720;DHT22;6424;48.520;11.228;2023-06-10T00:42:50;15.60;99.90
12720;DHT22;6424;48.520;11.228;2023-06-10T00:45:31;15.60;99.90
12720;DHT22;6424;48.520;11.228;2023-06-10T00:48:12;15.60;99.90
12720;DHT22;6424;48.520;11.228;2023-06-10T00:50:54;15.60;99.90
12720;DHT22;6424;48.520;11.228;2023-06-10T00:53:40;15.60;99.90
12720;DHT22;6424;48.520;11.228;2023-06-10T00:56:22;15.50;99.90
12720;DHT22;6424;48.520;11.228;2023-06-10T00:59:03;15.50;99.90
12720;DHT22;6424;48.520;11.228;2023-06-10T01:01:45;15.50;99.90
12720;DHT22;6424;48.520;11.228;2023-06-10T01:04:27;15.50;99.90
12720;DHT22;6424;48.520;11.228;2023-06-10T01:07:24;15.40;99.90
12720;DHT22;6424;48.520;11.228;2023-06-10T01:13:07;15.30;99.90
12720;DHT22;6424;48.520;11.228;2023-06-10T01:15:38;15.20;99.90
12720;DHT22;6424;48.520;11.228;2023-06-10T01:18:19;15.20;99.90
12720;DHT22;6424;48.520;11.228;2023-06-10T01:21:00;15.20;99.90
12720;DHT22;6424;48.520;11.228;2023-06-10T01:23:41;15.20;99.90
12720;DHT22;6424;48.520;11.228;2023-06-10T01:26:24;15.10;99.90
12720;DHT22;6424;48.520;11.228;2023-06-10T01:29:25;15.10;99.90
12720;DHT22;6424;48.520;11.228;2023-06-10T01:32:17;15.10;99.90
12720;DHT22;6424;48.520;11.228;2023-06-10T01:34:59;15.10;99.90
12720;DHT22;6424;48.520;11.228;2023-06-10T01:37:44;15.10;99.90
12720;DHT22;6424;48.520;11.228;2023-06-10T01:40:26;15.00;99.90
12720;DHT22;6424;48.520;11.228;2023-06-10T01:43:08;15.00;99.90
12720;DHT22;6424;48.520;11.228;2023-06-10T01:45:49;15.00;99.90
12720;DHT22;6424;48.520;11.228;2023-06-10T01:48:30;14.90;99.90
12720;DHT22;6424;48.520;11.228;2023-06-10T01:51:11;14.90;99.90
12720;DHT22;6424;48.520;11.228;2023-06-10T01:53:52;14.90;99.90
12720;DHT22;6424;48.520;11.228;2023-06-10T01:56:33;14.90;99.90
12720;DHT22;6424;48.520;11.228;2023-06-10T01:59:13;14.80;99.90
12720;DHT22;6424;48.520;11.228;2023-06-10T02:01:54;14.80;99.90
12720;DHT22;6424;48.520;11.228;2023-06-10T02:04:35;14.80;99.90
12720;DHT22;6424;48.520;11.228;2023-06-10T02:07:01;14.80;99.90
12720;DHT22;6424;48.520;11.228;2023-06-10T02:09:30;14.80;99.90
12720;DHT22;6424;48.520;11.228;2023-06-10T02:11:55;14.80;99.90
12720;DHT22;6424;48.520;11.228;2023-06-10T02:14:36;14.80;99.90
12720;DHT22;6424;48.520;11.228;2023-06-10T02:17:02;14.80;99.90
12720;DHT22;6424;48.520;11.228;2023-06-10T02:19:43;14.80;99.90
12720;DHT22;6424;48.520;11.228;2023-06-10T02:22:24;14.70;99.90
12720;DHT22;6424;48.520;11.228;2023-06-10T02:25:05;14.70;99.90
12720;DHT22;6424;48.520;11.228;2023-06-10T02:27:46;14.70;99.90
12720;DHT22;6424;48.520;11.228;2023-06-10T02:30:27;14.70;99.90
12720;DHT22;6424;48.520;11.228;2023-06-10T02:33:08;14.70;99.90
12720;DHT22;6424;48.520;11.228;2023-06-10T02:35:52;14.60;99.90
12720;DHT22;6424;48.520;11.228;2023-06-10T02:38:17;14.60;99.90
12720;DHT22;6424;48.520;11.228;2023-06-10T02:40:58;14.60;99.90
12720;DHT22;6424;48.520;11.228;2023-06-10T02:43:24;14.50;99.90
12720;DHT22;6424;48.520;11.228;2023-06-10T02:46:05;14.50;99.90
12720;DHT22;6424;48.520;11.228;2023-06-10T02:48:46;14.50;99.90
12720;DHT22;6424;48.520;11.228;2023-06-10T02:51:26;14.50;99.90
12720;DHT22;6424;48.520;11.228;2023-06-10T02:54:07;14.40;99.90
12720;DHT22;6424;48.520;11.228;2023-06-10T02:56:49;14.50;99.90
12720;DHT22;6424;48.520;11.228;2023-06-10T02:59:29;14.40;99.90
12720;DHT22;6424;48.520;11.228;2023-06-10T03:01:55;14.40;99.90
12720;DHT22;6424;48.520;11.228;2023-06-10T03:04:37;14.40;99.90
12720;DHT22;6424;48.520;11.228;2023-06-10T03:07:18;14.40;99.90
12720;DHT22;6424;48.520;11.228;2023-06-10T03:10:01;14.40;99.90
12720;DHT22;6424;48.520;11.228;2023-06-10T03:12:41;14.40;99.90
12720;DHT22;6424;48.520;11.228;2023-06-10T03:15:22;14.50;99.90
12720;DHT22;6424;48.520;11.228;2023-06-10T03:18:05;14.50;99.90
12720;DHT22;6424;48.520;11.228;2023-06-10T03:20:32;14.50;99.90
12720;DHT22;6424;48.520;11.228;2023-06-10T03:23:18;14.60;99.90
12720;DHT22;6424;48.520;11.228;2023-06-10T03:25:59;14.60;99.90
12720;DHT22;6424;48.520;11.228;2023-06-10T03:28:41;14.60;99.90
12720;DHT22;6424;48.520;11.228;2023-06-10T03:31:21;14.60;99.90
12720;DHT22;6424;48.520;11.228;2023-06-10T03:34:02;14.50;99.90
12720;DHT22;6424;48.520;11.228;2023-06-10T03:36:43;14.50;99.90
12720;DHT22;6424;48.520;11.228;2023-06-10T03:39:25;14.40;99.90
12720;DHT22;6424;48.520;11.228;2023-06-10T03:42:06;14.40;99.90
12720;DHT22;6424;48.520;11.228;2023-06-10T03:44:47;14.40;99.90
12720;DHT22;6424;48.520;11.228;2023-06-10T03:47:36;14.40;99.90
12720;DHT22;6424;48.520;11.228;2023-06-10T03:50:17;14.40;99.90
12720;DHT22;6424;48.520;11.228;2023-06-10T03:52:58;14.50;99.90
12720;DHT22;6424;48.520;11.228;2023-06-10T03:55:39;14.60;99.90
12720;DHT22;6424;48.520;11.228;2023-06-10T03:58:20;14.60;99.90
12720;DHT22;6424;48.520;11.228;2023-06-10T04:01:00;14.70;99.90
12720;DHT22;6424;48.520;11.228;2023-06-10T04:03:41;14.70;99.90
12720;DHT22;6424;48.520;11.228;2023-06-10T04:06:24;14.70;99.90
12720;DHT22;6424;48.520;11.228;2023-06-10T04:09:06;14.80;99.90
12720;DHT22;6424;48.520;11.228;2023-06-10T04:11:32;15.20;99.90
12720;DHT22;6424;48.520;11.228;2023-06-10T04:14:13;16.00;99.90
12720;DHT22;6424;48.520;11.228;2023-06-10T04:16:54;17.00;99.90
12720;DHT22;6424;48.520;11.228;2023-06-10T04:19:19;18.20;99.90
12720;DHT22;6424;48.520;11.228;2023-06-10T04:22:01;19.40;99.90
12720;DHT22;6424;48.520;11.228;2023-06-10T04:24:44;20.60;99.90
12720;DHT22;6424;48.520;11.228;2023-06-10T04:27:24;21.60;99.90
12720;DHT22;6424;48.520;11.228;2023-06-10T04:30:06;22.40;99.90
12720;DHT22;6424;48.520;11.228;2023-06-10T04:32:47;23.00;99.90
12720;DHT22;6424;48.520;11.228;2023-06-10T04:35:28;23.60;99.90
12720;DHT22;6424;48.520;11.228;2023-06-10T04:38:09;24.50;99.90
12720;DHT22;6424;48.520;11.228;2023-06-10T04:40:50;24.80;99.90
12720;DHT22;6424;48.520;11.228;2023-06-10T04:43:31;25.30;99.90
12720;DHT22;6424;48.520;11.228;2023-06-10T04:46:12;25.70;99.90
12720;DHT22;6424;48.520;11.228;2023-06-10T04:48:53;25.80;99.90
12720;DHT22;6424;48.520;11.228;2023-06-10T04:51:35;25.90;99.10
12720;DHT22;6424;48.520;11.228;2023-06-10T04:54:16;26.00;98.10
12720;DHT22;6424;48.520;11.228;2023-06-10T04:56:57;26.20;97.70
12720;DHT22;6424;48.520;11.228;2023-06-10T04:59:38;26.30;94.80
12720;DHT22;6424;48.520;11.228;2023-06-10T05:02:19;26.30;95.60
12720;DHT22;6424;48.520;11.228;2023-06-10T05:04:45;26.20;95.20
12720;DHT22;6424;48.520;11.228;2023-06-10T05:07:10;26.40;95.30
12720;DHT22;6424;48.520;11.228;2023-06-10T05:09:36;26.30;92.90
12720;DHT22;6424;48.520;11.228;2023-06-10T05:12:03;26.30;93.50
12720;DHT22;6424;48.520;11.228;2023-06-10T05:14:44;26.30;94.00
12720;DHT22;6424;48.520;11.228;2023-06-10T05:17:10;26.20;92.40
12720;DHT22;6424;48.520;11.228;2023-06-10T05:19:51;25.90;93.70
12720;DHT22;6424;48.520;11.228;2023-06-10T05:22:32;26.00;93.60
12720;DHT22;6424;48.520;11.228;2023-06-10T05:25:12;26.00;93.70
12720;DHT22;6424;48.520;11.228;2023-06-10T05:27:53;25.90;92.00
12720;DHT22;6424;48.520;11.228;2023-06-10T05:30:34;25.50;93.30
12720;DHT22;6424;48.520;11.228;2023-06-10T05:33:15;25.40;92.90
12720;DHT22;6424;48.520;11.228;2023-06-10T05:35:56;25.10;93.40
12720;DHT22;6424;48.520;11.228;2023-06-10T05:38:22;24.90;93.50
12720;DHT22;6424;48.520;11.228;2023-06-10T05:41:02;24.70;94.40
12720;DHT22;6424;48.520;11.228;2023-06-10T05:43:44;24.60;95.20
12720;DHT22;6424;48.520;11.228;2023-06-10T05:46:25;24.50;95.60
12720;DHT22;6424;48.520;11.228;2023-06-10T05:48:50;24.60;96.20
12720;DHT22;6424;48.520;11.228;2023-06-10T05:51:31;24.70;95.70
12720;DHT22;6424;48.520;11.228;2023-06-10T05:53:57;24.50;95.70
12720;DHT22;6424;48.520;11.228;2023-06-10T05:56:23;24.50;96.30
12720;DHT22;6424;48.520;11.228;2023-06-10T05:59:04;24.50;96.50
12720;DHT22;6424;48.520;11.228;2023-06-10T06:01:45;24.40;95.80
12720;DHT22;6424;48.520;11.228;2023-06-10T06:04:11;24.10;97.20
12720;DHT22;6424;48.520;11.228;2023-06-10T06:06:52;23.80;98.30
12720;DHT22;6424;48.520;11.228;2023-06-10T06:09:33;23.70;98.10
12720;DHT22;6424;48.520;11.228;2023-06-10T06:12:13;23.40;98.80
12720;DHT22;6424;48.520;11.228;2023-06-10T06:14:39;23.30;99.80
12720;DHT22;6424;48.520;11.228;2023-06-10T06:17:20;23.30;99.90
12720;DHT22;6424;48.520;11.228;2023-06-10T06:20:02;23.10;99.70
12720;DHT22;6424;48.520;11.228;2023-06-10T06:22:43;23.20;99.90
12720;DHT22;6424;48.520;11.228;2023-06-10T06:25:24;23.30;99.90
12720;DHT22;6424;48.520;11.228;2023-06-10T06:28:06;23.40;99.90
12720;DHT22;6424;48.520;11.228;2023-06-10T06:30:47;23.40;99.90
12720;DHT22;6424;48.520;11.228;2023-06-10T06:33:28;23.50;99.90
12720;DHT22;6424;48.520;11.228;2023-06-10T06:36:09;23.60;99.90
12720;DHT22;6424;48.520;11.228;2023-06-10T06:38:50;23.80;99.90
12720;DHT22;6424;48.520;11.228;2023-06-10T06:41:31;23.80;99.80
12720;DHT22;6424;48.520;11.228;2023-06-10T06:44:12;23.50;99.90
12720;DHT22;6424;48.520;11.228;2023-06-10T06:46:52;23.50;99.90
12720;DHT22;6424;48.520;11.228;2023-06-10T06:49:33;23.60;99.90
12720;DHT22;6424;48.520;11.228;2023-06-10T06:52:17;23.70;99.90
12720;DHT22;6424;48.520;11.228;2023-06-10T06:54:59;23.40;99.90
12720;DHT22;6424;48.520;11.228;2023-06-10T06:57:40;23.50;99.90
12720;DHT22;6424;48.520;11.228;2023-06-10T07:00:20;23.90;99.90
12720;DHT22;6424;48.520;11.228;2023-06-10T07:03:01;24.20;99.90
12720;DHT22;6424;48.520;11.228;2023-06-10T07:05:42;24.30;99.90
12720;DHT22;6424;48.520;11.228;2023-06-10T07:08:23;24.50;99.90
12720;DHT22;6424;48.520;11.228;2023-06-10T07:11:04;24.70;99.90
12720;DHT22;6424;48.520;11.228;2023-06-10T07:13:45;24.80;99.30
12720;DHT22;6424;48.520;11.228;2023-06-10T07:16:26;24.90;99.90
12720;DHT22;6424;48.520;11.228;2023-06-10T07:19:06;25.00;98.80
12720;DHT22;6424;48.520;11.228;2023-06-10T07:21:47;25.00;99.90
12720;DHT22;6424;48.520;11.228;2023-06-10T07:24:28;25.00;98.70
12720;DHT22;6424;48.520;11.228;2023-06-10T07:27:09;25.10;99.30
12720;DHT22;6424;48.520;11.228;2023-06-10T07:29:51;25.10;97.70
12720;DHT22;6424;48.520;11.228;2023-06-10T07:32:32;24.90;98.00
12720;DHT22;6424;48.520;11.228;2023-06-10T07:35:14;24.80;97.90
12720;DHT22;6424;48.520;11.228;2023-06-10T07:37:55;24.80;96.90
12720;DHT22;6424;48.520;11.228;2023-06-10T07:40:35;24.70;96.40
12720;DHT22;6424;48.520;11.228;2023-06-10T07:43:16;24.60;98.40
12720;DHT22;6424;48.520;11.228;2023-06-10T07:45:57;24.80;99.90
12720;DHT22;6424;48.520;11.228;2023-06-10T07:48:38;25.10;99.10
12720;DHT22;6424;48.520;11.228;2023-06-10T07:51:20;25.30;99.30
12720;DHT22;6424;48.520;11.228;2023-06-10T07:54:01;25.50;99.80
12720;DHT22;6424;48.520;11.228;2023-06-10T07:56:41;25.70;97.00
12720;DHT22;6424;48.520;11.228;2023-06-10T07:59:22;25.70;98.00
12720;DHT22;6424;48.520;11.228;2023-06-10T08:02:03;25.70;96.30
12720;DHT22;6424;48.520;11.228;2023-06-10T08:04:44;25.40;95.40
12720;DHT22;6424;48.520;11.228;2023-06-10T08:07:25;25.40;96.10
12720;DHT22;6424;48.520;11.228;2023-06-10T08:10:07;25.30;95.10
12720;DHT22;6424;48.520;11.228;2023-06-10T08:12:48;25.00;95.60
12720;DHT22;6424;48.520;11.228;2023-06-10T08:15:28;24.50;96.80
12720;DHT22;6424;48.520;11.228;2023-06-10T08:18:09;24.40;96.80
12720;DHT22;6424;48.520;11.228;2023-06-10T08:20:50;24.70;97.50
12720;DHT22;6424;48.520;11.228;2023-06-10T08:23:31;24.50;96.20
12720;DHT22;6424;48.520;11.228;2023-06-10T08:26:12;24.70;97.90
12720;DHT22;6424;48.520;11.228;2023-06-10T08:28:38;24.90;96.10
12720;DHT22;6424;48.520;11.228;2023-06-10T08:31:18;24.90;95.60
12720;DHT22;6424;48.520;11.228;2023-06-10T08:33:59;24.60;95.20
12720;DHT22;6424;48.520;11.228;2023-06-10T08:36:40;24.50;95.60
12720;DHT22;6424;48.520;11.228;2023-06-10T08:39:22;24.20;96.00
12720;DHT22;6424;48.520;11.228;2023-06-10T08:44:58;24.10;96.20
12720;DHT22;6424;48.520;11.228;2023-06-10T08:47:44;24.20;95.20
12720;DHT22;6424;48.520;11.228;2023-06-10T08:50:26;24.30;95.60
12720;DHT22;6424;48.520;11.228;2023-06-10T08:53:12;24.50;94.30
12720;DHT22;6424;48.520;11.228;2023-06-10T08:55:58;24.70;93.50
12720;DHT22;6424;48.520;11.228;2023-06-10T08:58:41;24.60;92.30
12720;DHT22;6424;48.520;11.228;2023-06-10T09:01:24;24.60;93.80
12720;DHT22;6424;48.520;11.228;2023-06-10T09:04:06;24.70;93.00
12720;DHT22;6424;48.520;11.228;2023-06-10T09:06:32;24.80;93.00
12720;DHT22;6424;48.520;11.228;2023-06-10T09:09:15;24.90;92.50
12720;DHT22;6424;48.520;11.228;2023-06-10T09:11:55;24.90;92.40
12720;DHT22;6424;48.520;11.228;2023-06-10T09:14:36;24.70;92.80
12720;DHT22;6424;48.520;11.228;2023-06-10T09:17:17;24.70;93.70
12720;DHT22;6424;48.520;11.228;2023-06-10T09:19:59;24.70;92.90
12720;DHT22;6424;48.520;11.228;2023-06-10T09:22:42;24.90;92.60
12720;DHT22;6424;48.520;11.228;2023-06-10T09:25:10;25.00;93.00
12720;DHT22;6424;48.520;11.228;2023-06-10T09:27:52;25.10;92.80
12720;DHT22;6424;48.520;11.228;2023-06-10T09:30:36;25.20;91.20
12720;DHT22;6424;48.520;11.228;2023-06-10T09:33:17;25.20;92.10
12720;DHT22;6424;48.520;11.228;2023-06-10T09:35:59;25.40;92.30
12720;DHT22;6424;48.520;11.228;2023-06-10T09:38:41;25.20;90.70
12720;DHT22;6424;48.520;11.228;2023-06-10T09:41:32;24.90;91.40
12720;DHT22;6424;48.520;11.228;2023-06-10T09:43:58;24.60;92.10
12720;DHT22;6424;48.520;11.228;2023-06-10T09:46:39;24.80;92.20
12720;DHT22;6424;48.520;11.228;2023-06-10T09:49:20;25.00;92.30
12720;DHT22;6424;48.520;11.228;2023-06-10T09:52:00;25.10;91.70
12720;DHT22;6424;48.520;11.228;2023-06-10T09:54:45;25.10;91.20
12720;DHT22;6424;48.520;11.228;2023-06-10T09:57:26;25.00;92.00
12720;DHT22;6424;48.520;11.228;2023-06-10T10:00:12;25.10;92.50
12720;DHT22;6424;48.520;11.228;2023-06-10T10:02:53;25.40;92.00
12720;DHT22;6424;48.520;11.228;2023-06-10T10:05:34;25.60;91.10
12720;DHT22;6424;48.520;11.228;2023-06-10T10:08:00;25.50;91.60
12720;DHT22;6424;48.520;11.228;2023-06-10T10:10:40;25.60;91.20
12720;DHT22;6424;48.520;11.228;2023-06-10T10:13:21;25.80;89.80
12720;DHT22;6424;48.520;11.228;2023-06-10T10:16:15;25.80;87.70
12720;DHT22;6424;48.520;11.228;2023-06-10T10:19:04;25.40;90.10
12720;DHT22;6424;48.520;11.228;2023-06-10T10:21:53;25.30;90.20
12720;DHT22;6424;48.520;11.228;2023-06-10T10:24:38;25.20;89.90
12720;DHT22;6424;48.520;11.228;2023-06-10T10:27:35;25.10;90.40
12720;DHT22;6424;48.520;11.228;2023-06-10T10:30:17;25.40;90.00
12720;DHT22;6424;48.520;11.228;2023-06-10T10:33:08;25.80;90.80
12720;DHT22;6424;48.520;11.228;2023-06-10T10:35:50;26.20;88.40
12720;DHT22;6424;48.520;11.228;2023-06-10T10:38:17;26.40;88.10
12720;DHT22;6424;48.520;11.228;2023-06-10T10:40:58;26.40;84.70
12720;DHT22;6424;48.520;11.228;2023-06-10T10:43:42;26.00;84.30
12720;DHT22;6424;48.520;11.228;2023-06-10T10:46:24;25.50;86.40
12720;DHT22;6424;48.520;11.228;2023-06-10T10:49:04;25.10;88.40
12720;DHT22;6424;48.520;11.228;2023-06-10T10:52:00;24.70;90.10
12720;DHT22;6424;48.520;11.228;2023-06-10T10:54:46;24.30;91.10
12720;DHT22;6424;48.520;11.228;2023-06-10T10:57:29;23.90;91.40
12720;DHT22;6424;48.520;11.228;2023-06-10T11:00:10;23.70;91.90
12720;DHT22;6424;48.520;11.228;2023-06-10T11:02:51;23.50;92.10
12720;DHT22;6424;48.520;11.228;2023-06-10T11:11:26;23.00;93.70
12720;DHT22;6424;48.520;11.228;2023-06-10T11:14:08;22.80;94.20
12720;DHT22;6424;48.520;11.228;2023-06-10T11:16:42;22.70;95.10
12720;DHT22;6424;48.520;11.228;2023-06-10T11:19:37;22.50;95.90
12720;DHT22;6424;48.520;11.228;2023-06-10T11:22:19;22.30;96.90
12720;DHT22;6424;48.520;11.228;2023-06-10T11:25:00;22.20;97.50
12720;DHT22;6424;48.520;11.228;2023-06-10T11:27:40;22.10;97.80
12720;DHT22;6424;48.520;11.228;2023-06-10T11:30:25;22.10;98.00
12720;DHT22;6424;48.520;11.228;2023-06-10T11:33:06;22.00;99.00
12720;DHT22;6424;48.520;11.228;2023-06-10T11:35:47;21.90;98.60
12720;DHT22;6424;48.520;11.228;2023-06-10T11:38:13;21.90;99.70
12720;DHT22;6424;48.520;11.228;2023-06-10T11:40:55;21.90;99.80
12720;DHT22;6424;48.520;11.228;2023-06-10T11:43:37;22.00;99.90
12720;DHT22;6424;48.520;11.228;2023-06-10T11:46:21;22.10;99.90
12720;DHT22;6424;48.520;11.228;2023-06-10T11:49:03;22.10;99.20
12720;DHT22;6424;48.520;11.228;2023-06-10T11:51:44;22.20;98.80
12720;DHT22;6424;48.520;11.228;2023-06-10T11:54:15;22.20;99.00
12720;DHT22;6424;48.520;11.228;2023-06-10T11:57:00;22.20;99.00
12720;DHT22;6424;48.520;11.228;2023-06-10T11:59:41;22.20;98.80
12720;DHT22;6424;48.520;11.228;2023-06-10T12:02:21;22.20;99.00
12720;DHT22;6424;48.520;11.228;2023-06-10T12:05:15;22.20;99.10
12720;DHT22;6424;48.520;11.228;2023-06-10T12:08:14;22.30;98.70
12720;DHT22;6424;48.520;11.228;2023-06-10T12:10:55;22.50;98.80
12720;DHT22;6424;48.520;11.228;2023-06-10T12:13:36;22.70;98.70
12720;DHT22;6424;48.520;11.228;2023-06-10T12:16:17;22.90;97.60
12720;DHT22;6424;48.520;11.228;2023-06-10T12:19:03;23.00;98.10
12720;DHT22;6424;48.520;11.228;2023-06-10T12:21:44;23.10;97.00
12720;DHT22;6424;48.520;11.228;2023-06-10T12:24:11;23.20;96.20
12720;DHT22;6424;48.520;11.228;2023-06-10T12:26:54;23.20;96.40
12720;DHT22;6424;48.520;11.228;2023-06-10T12:29:36;23.30;96.40
12720;DHT22;6424;48.520;11.228;2023-06-10T12:32:17;23.20;96.80
12720;DHT22;6424;48.520;11.228;2023-06-10T12:35:05;23.10;97.40
12720;DHT22;6424;48.520;11.228;2023-06-10T12:37:31;23.20;97.20
12720;DHT22;6424;48.520;11.228;2023-06-10T12:40:15;23.30;97.20
12720;DHT22;6424;48.520;11.228;2023-06-10T12:42:56;23.50;96.90
12720;DHT22;6424;48.520;11.228;2023-06-10T12:45:38;23.80;96.60
12720;DHT22;6424;48.520;11.228;2023-06-10T12:48:25;24.10;95.40
12720;DHT22;6424;48.520;11.228;2023-06-10T12:51:05;24.40;94.60
12720;DHT22;6424;48.520;11.228;2023-06-10T12:53:46;24.70;93.50
12720;DHT22;6424;48.520;11.228;2023-06-10T12:56:27;24.90;92.10
12720;DHT22;6424;48.520;11.228;2023-06-10T12:59:08;24.90;92.60
12720;DHT22;6424;48.520;11.228;2023-06-10T13:01:52;25.10;91.90
12720;DHT22;6424;48.520;11.228;2023-06-10T13:04:33;25.10;90.70
12720;DHT22;6424;48.520;11.228;2023-06-10T13:07:14;24.90;91.70
12720;DHT22;6424;48.520;11.228;2023-06-10T13:09:55;24.80;92.20
12720;DHT22;6424;48.520;11.228;2023-06-10T13:12:21;24.70;92.10
12720;DHT22;6424;48.520;11.228;2023-06-10T13:15:03;24.60;91.90
12720;DHT22;6424;48.520;11.228;2023-06-10T13:17:44;24.30;92.50
12720;DHT22;6424;48.520;11.228;2023-06-10T13:20:29;24.10;93.60
12720;DHT22;6424;48.520;11.228;2023-06-10T13:23:10;24.10;94.20
12720;DHT22;6424;48.520;11.228;2023-06-10T13:25:51;24.30;93.60
12720;DHT22;6424;48.520;11.228;2023-06-10T13:28:32;24.40;92.20
12720;DHT22;6424;48.520;11.228;2023-06-10T13:31:12;24.50;92.40
12720;DHT22;6424;48.520;11.228;2023-06-10T13:33:53;24.40;91.80
12720;DHT22;6424;48.520;11.228;2023-06-10T13:36:34;24.40;91.80
12720;DHT22;6424;48.520;11.228;2023-06-10T13:39:15;24.60;92.00
12720;DHT22;6424;48.520;11.228;2023-06-10T13:41:56;24.50;91.20
12720;DHT22;6424;48.520;11.228;2023-06-10T13:44:37;24.60;91.70
12720;DHT22;6424;48.520;11.228;2023-06-10T13:47:17;24.80;91.30
12720;DHT22;6424;48.520;11.228;2023-06-10T13:49:43;25.00;90.90
12720;DHT22;6424;48.520;11.228;2023-06-10T13:52:24;25.10;91.30
12720;DHT22;6424;48.520;11.228;2023-06-10T13:55:05;25.30;90.60
12720;DHT22;6424;48.520;11.228;2023-06-10T13:57:46;25.40;90.40
12720;DHT22;6424;48.520;11.228;2023-06-10T14:00:12;25.20;90.00
12720;DHT22;6424;48.520;11.228;2023-06-10T14:02:53;25.00;89.00
12720;DHT22;6424;48.520;11.228;2023-06-10T14:05:34;25.00;87.00
12720;DHT22;6424;48.520;11.228;2023-06-10T14:08:15;25.00;84.80
12720;DHT22;6424;48.520;11.228;2023-06-10T14:10:41;25.10;83.30
12720;DHT22;6424;48.520;11.228;2023-06-10T14:13:21;25.20;84.80
12720;DHT22;6424;48.520;11.228;2023-06-10T14:16:03;25.30;86.00
12720;DHT22;6424;48.520;11.228;2023-06-10T14:18:43;25.30;85.50
12720;DHT22;6424;48.520;11.228;2023-06-10T14:21:24;25.30;86.70
12720;DHT22;6424;48.520;11.228;2023-06-10T14:24:05;25.30;86.70
12720;DHT22;6424;48.520;11.228;2023-06-10T14:26:46;25.30;86.90
12720;DHT22;6424;48.520;11.228;2023-06-10T14:29:27;25.30;87.40
12720;DHT22;6424;48.520;11.228;2023-06-10T14:32:09;25.20;87.70
12720;DHT22;6424;48.520;11.228;2023-06-10T14:34:50;25.20;87.70
12720;DHT22;6424;48.520;11.228;2023-06-10T14:37:31;25.30;88.30
12720;DHT22;6424;48.520;11.228;2023-06-10T14:40:11;25.40;89.30
12720;DHT22;6424;48.520;11.228;2023-06-10T14:42:37;25.40;89.50
12720;DHT22;6424;48.520;11.228;2023-06-10T14:45:18;25.50;89.00
12720;DHT22;6424;48.520;11.228;2023-06-10T14:47:59;25.60;89.90
12720;DHT22;6424;48.520;11.228;2023-06-10T14:50:39;25.70;90.10
12720;DHT22;6424;48.520;11.228;2023-06-10T14:53:22;25.70;90.00
12720;DHT22;6424;48.520;11.228;2023-06-10T14:56:03;25.70;89.40
12720;DHT22;6424;48.520;11.228;2023-06-10T14:58:44;25.80;88.80
12720;DHT22;6424;48.520;11.228;2023-06-10T15:01:25;25.70;89.10
12720;DHT22;6424;48.520;11.228;2023-06-10T15:04:06;25.80;87.80
12720;DHT22;6424;48.520;11.228;2023-06-10T15:06:46;25.90;88.20
12720;DHT22;6424;48.520;11.228;2023-06-10T15:09:29;26.00;87.30
12720;DHT22;6424;48.520;11.228;2023-06-10T15:11:55;25.90;86.00
12720;DHT22;6424;48.520;11.228;2023-06-10T15:14:36;25.90;86.90
12720;DHT22;6424;48.520;11.228;2023-06-10T15:17:16;25.80;86.80
12720;DHT22;6424;48.520;11.228;2023-06-10T15:19:57;25.80;87.00
12720;DHT22;6424;48.520;11.228;2023-06-10T15:22:38;26.00;87.60
12720;DHT22;6424;48.520;11.228;2023-06-10T15:25:19;26.00;85.70
12720;DHT22;6424;48.520;11.228;2023-06-10T15:27:59;26.00;85.20
12720;DHT22;6424;48.520;11.228;2023-06-10T15:30:40;25.80;86.60
12720;DHT22;6424;48.520;11.228;2023-06-10T15:33:21;25.40;87.10
12720;DHT22;6424;48.520;11.228;2023-06-10T15:36:02;25.10;88.80
12720;DHT22;6424;48.520;11.228;2023-06-10T15:38:43;24.90;90.10
12720;DHT22;6424;48.520;11.228;2023-06-10T15:41:08;24.80;90.30
12720;DHT22;6424;48.520;11.228;2023-06-10T15:43:49;24.70;90.50
12720;DHT22;6424;48.520;11.228;2023-06-10T15:46:30;24.60;90.40
12720;DHT22;6424;48.520;11.228;2023-06-10T15:49:11;24.40;90.00
12720;DHT22;6424;48.520;11.228;2023-06-10T15:51:52;24.20;90.50
12720;DHT22;6424;48.520;11.228;2023-06-10T15:54:32;24.10;91.10
12720;DHT22;6424;48.520;11.228;2023-06-10T15:57:13;24.00;91.70
12720;DHT22;6424;48.520;11.228;2023-06-10T15:59:54;23.80;91.40
12720;DHT22;6424;48.520;11.228;2023-06-10T16:02:35;23.70;91.70
12720;DHT22;6424;48.520;11.228;2023-06-10T16:05:16;23.60;92.30
12720;DHT22;6424;48.520;11.228;2023-06-10T16:07:57;23.60;92.50
12720;DHT22;6424;48.520;11.228;2023-06-10T16:10:38;23.50;92.70
12720;DHT22;6424;48.520;11.228;2023-06-10T16:13:04;23.40;93.20
12720;DHT22;6424;48.520;11.228;2023-06-10T16:15:45;23.40;93.50
12720;DHT22;6424;48.520;11.228;2023-06-10T16:18:25;23.50;93.80
12720;DHT22;6424;48.520;11.228;2023-06-10T16:21:06;23.70;93.30
12720;DHT22;6424;48.520;11.228;2023-06-10T16:23:47;23.90;93.20
12720;DHT22;6424;48.520;11.228;2023-06-10T16:26:13;24.10;92.50
12720;DHT22;6424;48.520;11.228;2023-06-10T16:28:54;24.30;92.20
12720;DHT22;6424;48.520;11.228;2023-06-10T16:31:35;24.50;92.00
12720;DHT22;6424;48.520;11.228;2023-06-10T16:34:15;24.60;91.00
12720;DHT22;6424;48.520;11.228;2023-06-10T16:36:57;24.50;91.40
12720;DHT22;6424;48.520;11.228;2023-06-10T16:39:38;24.50;90.90
12720;DHT22;6424;48.520;11.228;2023-06-10T16:42:18;24.50;90.70
12720;DHT22;6424;48.520;11.228;2023-06-10T16:44:59;24.40;91.30
12720;DHT22;6424;48.520;11.228;2023-06-10T16:47:40;24.30;90.60
12720;DHT22;6424;48.520;11.228;2023-06-10T16:50:21;24.10;90.50
12720;DHT22;6424;48.520;11.228;2023-06-10T16:53:01;23.80;91.30
12720;DHT22;6424;48.520;11.228;2023-06-10T16:55:42;23.50;91.90
12720;DHT22;6424;48.520;11.228;2023-06-10T16:58:24;23.30;92.80
12720;DHT22;6424;48.520;11.228;2023-06-10T17:01:06;23.10;93.60
12720;DHT22;6424;48.520;11.228;2023-06-10T17:03:33;22.90;94.80